Time,TemperatureF,DewpointF,PressureIn,WindDirection,WindDirectionDegrees,WindSpeedMPH,WindSpeedGustMPH,Humidity,HourlyPrecipIn,Conditions,Clouds,dailyrainin,SoftwareType,DateUTC
2013-11-02 00:24:00,-999.0,-99.9,29.76,SSW,206,12.0,17.0,-999,-99.99,,,-99.99,,2013-11-02 04:24:00,
2013-11-02 00:34:00,-999.0,-99.9,29.76,SSW,207,12.0,16.0,-999,-99.99,,,-99.99,,2013-11-02 04:34:00,
2013-11-02 00:54:00,-999.0,-99.9,29.76,SSW,201,15.0,19.0,-999,-99.99,,,-99.99,,2013-11-02 04:54:00,
2013-11-02 01:34:00,-999.0,-99.9,29.74,SSW,210,15.0,22.0,-999,-99.99,,,-99.99,,2013-11-02 05:34:00,
2013-11-02 01:52:00,-999.0,-99.9,29.74,SW,214,13.0,18.0,-999,-99.99,,,-99.99,,2013-11-02 05:52:00,
2013-11-02 02:02:00,-999.0,-99.9,29.73,SSW,207,12.0,17.0,-999,-99.99,,,-99.99,,2013-11-02 06:02:00,
2013-11-02 02:12:00,-999.0,-99.9,29.73,SSW,213,12.0,17.0,-999,-99.99,,,-99.99,,2013-11-02 06:12:00,
2013-11-02 02:32:00,-999.0,-99.9,29.72,WSW,237,7.0,14.0,-999,-99.99,,,-99.99,,2013-11-02 06:32:00,
2013-11-02 03:03:00,-999.0,-99.9,29.71,WSW,239,6.0,13.0,-999,-99.99,,,-99.99,,2013-11-02 07:03:00,
2013-11-02 03:12:00,-999.0,-99.9,29.71,WSW,243,6.0,11.0,-999,-99.99,,,-99.99,,2013-11-02 07:12:00,
2013-11-02 03:22:00,-999.0,-99.9,29.71,WSW,240,6.0,9.0,-999,-99.99,,,-99.99,,2013-11-02 07:22:00,
2013-11-02 03:52:00,72.0,-99.9,29.71,North,-999,-999.0,-999.0,-999,-99.99,,,-99.99,,2013-11-02 07:52:00,
2013-11-02 04:12:00,-999.0,-99.9,29.71,WSW,246,7.0,14.0,-999,-99.99,,,-99.99,,2013-11-02 08:12:00,
2013-11-02 04:32:00,-999.0,-99.9,29.71,WSW,252,8.0,13.0,-999,-99.99,,,-99.99,,2013-11-02 08:32:00,
2013-11-02 04:52:00,-999.0,-99.9,29.70,West,281,8.0,16.0,-999,-99.99,,,-99.99,,2013-11-02 08:52:00,
2013-11-02 05:02:00,-999.0,-99.9,29.71,West,269,6.0,9.0,-999,-99.99,,,-99.99,,2013-11-02 09:02:00,
2013-11-02 05:43:00,-999.0,-99.9,29.71,West,279,5.0,10.0,-999,-99.99,,,-99.99,,2013-11-02 09:43:00,
2013-11-02 06:03:00,-999.0,-99.9,29.73,West,261,8.0,19.0,-999,-99.99,,,-99.99,,2013-11-02 10:03:00,
2013-11-02 06:13:00,-999.0,-99.9,29.74,WSW,254,11.0,21.0,-999,-99.99,,,-99.99,,2013-11-02 10:13:00,
2013-11-02 06:23:00,-999.0,-99.9,29.73,WSW,250,11.0,17.0,-999,-99.99,,,-99.99,,2013-11-02 10:23:00,
2013-11-02 07:02:00,-999.0,-99.9,29.72,WSW,250,6.0,11.0,-999,-99.99,,,-99.99,,2013-11-02 11:02:00,
2013-11-02 07:33:00,-999.0,-99.9,29.72,WSW,248,5.0,13.0,-999,-99.99,,,-99.99,,2013-11-02 11:33:00,
2013-11-02 07:42:00,-999.0,-99.9,29.72,WSW,255,6.0,10.0,-999,-99.99,,,-99.99,,2013-11-02 11:42:00,
2013-11-02 08:02:00,-999.0,-99.9,29.73,WNW,292,6.0,11.0,-999,-99.99,,,-99.99,,2013-11-02 12:02:00,
2013-11-02 08:12:00,-999.0,-99.9,29.72,WSW,258,5.0,8.0,-999,-99.99,,,-99.99,,2013-11-02 12:12:00,
2013-11-02 08:22:00,-999.0,-99.9,29.72,WSW,253,5.0,9.0,-999,-99.99,,,-99.99,,2013-11-02 12:22:00,
2013-11-02 08:32:00,-999.0,-99.9,29.71,West,262,4.0,7.0,-999,-99.99,,,-99.99,,2013-11-02 12:32:00,
2013-11-02 08:42:00,-999.0,-99.9,29.72,WSW,243,4.0,8.0,-999,-99.99,,,-99.99,,2013-11-02 12:42:00,
2013-11-02 09:52:00,-999.0,-99.9,29.76,WNW,302,6.0,9.0,-999,-99.99,,,-99.99,,2013-11-02 13:52:00,
2013-11-02 10:11:00,-999.0,-99.9,29.77,WNW,303,9.0,12.0,-999,-99.99,,,-99.99,,2013-11-02 14:11:00,
2013-11-02 10:32:00,-999.0,-99.9,29.78,WNW,297,9.0,11.0,-999,-99.99,,,-99.99,,2013-11-02 14:32:00,
2013-11-02 11:02:00,-999.0,-99.9,29.77,WNW,291,8.0,12.0,-999,-99.99,,,-99.99,,2013-11-02 15:02:00,
2013-11-02 11:53:00,-999.0,-99.9,29.79,West,280,3.0,7.0,-999,-99.99,,,-99.99,,2013-11-02 15:53:00,
2013-11-02 12:03:00,-999.0,-99.9,29.77,WNW,295,4.0,8.0,-999,-99.99,,,-99.99,,2013-11-02 16:03:00,
2013-11-02 12:24:00,-999.0,-99.9,29.77,WNW,295,7.0,9.0,-999,-99.99,,,-99.99,,2013-11-02 16:24:00,
2013-11-02 12:34:00,-999.0,-99.9,29.77,West,269,4.0,4.0,-999,-99.99,,,-99.99,,2013-11-02 16:34:00,
2013-11-02 12:43:00,-999.0,-99.9,29.78,West,277,5.0,8.0,-999,-99.99,,,-99.99,,2013-11-02 16:43:00,
2013-11-02 12:54:00,64.0,-99.9,29.76,North,-999,-999.0,-999.0,-999,-99.99,,,-99.99,,2013-11-02 16:54:00,
2013-11-02 13:03:00,-999.0,-99.9,29.76,WNW,294,5.0,9.0,-999,-99.99,,,-99.99,,2013-11-02 17:03:00,
2013-11-02 13:22:00,-999.0,-99.9,29.76,WNW,294,7.0,10.0,-999,-99.99,,,-99.99,,2013-11-02 17:22:00,
2013-11-02 13:34:00,-999.0,-99.9,29.76,WNW,301,7.0,10.0,-999,-99.99,,,-99.99,,2013-11-02 17:34:00,
2013-11-02 14:03:00,-999.0,-99.9,29.74,WNW,285,4.0,6.0,-999,-99.99,,,-99.99,,2013-11-02 18:03:00,
2013-11-02 14:22:00,65.0,-99.9,29.73,North,-999,-999.0,-999.0,-999,-99.99,,,-99.99,,2013-11-02 18:22:00,
2013-11-02 14:42:00,-999.0,-99.9,29.72,NW,322,6.0,9.0,-999,-99.99,,,-99.99,,2013-11-02 18:42:00,
2013-11-02 15:02:00,-999.0,-99.9,29.74,WNW,292,7.0,10.0,-999,-99.99,,,-99.99,,2013-11-02 19:02:00,
2013-11-02 15:22:00,-999.0,-99.9,29.73,NW,316,4.0,5.0,-999,-99.99,,,-99.99,,2013-11-02 19:22:00,
2013-11-02 15:32:00,-999.0,-99.9,29.73,WNW,300,7.0,9.0,-999,-99.99,,,-99.99,,2013-11-02 19:32:00,
2013-11-02 15:52:00,-999.0,-99.9,29.73,WNW,294,5.0,6.0,-999,-99.99,,,-99.99,,2013-11-02 19:52:00,
2013-11-02 16:12:00,-999.0,-99.9,29.73,WNW,297,4.0,7.0,-999,-99.99,,,-99.99,,2013-11-02 20:12:00,
2013-11-02 16:22:00,-999.0,-99.9,29.72,WNW,297,6.0,7.0,-999,-99.99,,,-99.99,,2013-11-02 20:22:00,
2013-11-02 16:43:00,-999.0,-99.9,29.72,WNW,293,5.0,8.0,-999,-99.99,,,-99.99,,2013-11-02 20:43:00,
2013-11-02 16:53:00,66.0,-99.9,29.73,North,-999,-999.0,-999.0,-999,-99.99,,,-99.99,,2013-11-02 20:53:00,
2013-11-02 17:02:00,-999.0,-99.9,29.74,West,271,3.0,6.0,-999,-99.99,,,-99.99,,2013-11-02 21:02:00,
2013-11-02 17:33:00,-999.0,-99.9,29.75,WSW,255,3.0,4.0,-999,-99.99,,,-99.99,,2013-11-02 21:33:00,
2013-11-02 18:24:00,-999.0,-99.9,29.78,WSW,252,4.0,6.0,-999,-99.99,,,-99.99,,2013-11-02 22:24:00,
2013-11-02 19:12:00,-999.0,-99.9,29.79,WNW,296,4.0,6.0,-999,-99.99,,,-99.99,,2013-11-02 23:12:00,
2013-11-02 19:22:00,66.0,-99.9,29.79,North,-999,-999.0,-999.0,-999,-99.99,,,-99.99,,2013-11-02 23:22:00,
2013-11-02 19:34:00,-999.0,-99.9,29.79,WNW,300,4.0,6.0,-999,-99.99,,,-99.99,,2013-11-02 23:34:00,
2013-11-02 19:42:00,-999.0,-99.9,29.79,WNW,299,5.0,7.0,-999,-99.99,,,-99.99,,2013-11-02 23:42:00,
2013-11-02 20:02:00,-999.0,-99.9,29.80,West,275,3.0,5.0,-999,-99.99,,,-99.99,,2013-11-03 00:02:00,
2013-11-02 20:22:00,-999.0,-99.9,29.82,West,268,3.0,5.0,-999,-99.99,,,-99.99,,2013-11-03 00:22:00,
2013-11-02 20:33:00,-999.0,-99.9,29.83,WSW,246,3.0,5.0,-999,-99.99,,,-99.99,,2013-11-03 00:33:00,
2013-11-02 20:42:00,-999.0,-99.9,29.83,WSW,246,3.0,6.0,-999,-99.99,,,-99.99,,2013-11-03 00:42:00,
2013-11-02 20:52:00,-999.0,-99.9,29.84,West,259,4.0,7.0,-999,-99.99,,,-99.99,,2013-11-03 00:52:00,
2013-11-02 21:02:00,-999.0,-99.9,29.83,WSW,256,3.0,6.0,-999,-99.99,,,-99.99,,2013-11-03 01:02:00,
2013-11-02 21:22:00,-999.0,-99.9,29.84,West,261,3.0,5.0,-999,-99.99,,,-99.99,,2013-11-03 01:22:00,
2013-11-02 21:32:00,-999.0,-99.9,29.84,West,270,3.0,5.0,-999,-99.99,,,-99.99,,2013-11-03 01:32:00,
2013-11-02 21:42:00,-999.0,-99.9,29.85,WSW,255,4.0,7.0,-999,-99.99,,,-99.99,,2013-11-03 01:42:00,
2013-11-02 22:22:00,-999.0,-99.9,29.86,West,268,3.0,5.0,-999,-99.99,,,-99.99,,2013-11-03 02:22:00,
2013-11-02 22:43:00,-999.0,-99.9,29.86,WSW,257,2.0,4.0,-999,-99.99,,,-99.99,,2013-11-03 02:43:00,
2013-11-02 23:02:00,-999.0,-99.9,29.87,WSW,257,3.0,6.0,-999,-99.99,,,-99.99,,2013-11-03 03:02:00,
2013-11-02 23:22:00,-999.0,-99.9,29.87,West,275,3.0,6.0,-999,-99.99,,,-99.99,,2013-11-03 03:22:00,
2013-11-02 23:54:00,-999.0,-99.9,29.87,West,259,4.0,6.0,-999,-99.99,,,-99.99,,2013-11-03 03:54:00,